Time;durP1;ratioP1;P1;durP2;ratioP2;P2;SDS_P1;SDS_P2;PMS_P1;PMS_P2;Temp;Humidity;BMP_temperature;BMP_pressure;BME280_temperature;BME280_humidity;BME280_pressure;Samples;Min_cycle;Max_cycle;Signal;HPM_P1;HPM_P2
2023/07/23 00:01:42;;;;;;;7.82;5.32;;;;;;;;;;5061726;28;20040;-74
2023/07/23 00:04:12;;;;;;;8.32;5.30;;;;;;;;;;5059547;28;20051;-75
2023/07/23 00:06:43;;;;;;;10.05;4.20;;;;;;;;;;5062087;28;20050;-75
2023/07/23 00:09:14;;;;;;;6.85;4.63;;;;;;;;;;5061124;28;20054;-75
2023/07/23 00:11:44;;;;;;;7.45;4.03;;;;;;;;;;5060983;28;20056;-75
2023/07/23 00:14:15;;;;;;;9.25;4.30;;;;;;;;;;5061600;28;20498;-77
2023/07/23 00:16:46;;;;;;;8.02;4.72;;;;;;;;;;5061459;28;20047;-75
2023/07/23 00:19:19;;;;;;;7.43;4.50;;;;;;;;;;5061642;28;20049;-75
2023/07/23 00:21:50;;;;;;;17.25;6.60;;;;;;;;;;5059083;28;20044;-75
2023/07/23 00:24:20;;;;;;;8.82;5.40;;;;;;;;;;5061053;28;20044;-75
2023/07/23 00:26:51;;;;;;;7.38;3.92;;;;;;;;;;5061335;28;20048;-75
2023/07/23 00:29:22;;;;;;;8.13;4.13;;;;;;;;;;5061574;28;20488;-74
2023/07/23 00:31:54;;;;;;;7.53;4.55;;;;;;;;;;5059164;28;20037;-75
2023/07/23 00:34:25;;;;;;;9.77;4.65;;;;;;;;;;5061159;28;20597;-75
2023/07/23 00:36:57;;;;;;;7.43;4.82;;;;;;;;;;5059292;28;20040;-74
2023/07/23 00:39:28;;;;;;;8.10;4.35;;;;;;;;;;5059955;28;20044;-74
2023/07/23 00:41:59;;;;;;;9.80;4.68;;;;;;;;;;5065518;28;20044;-75
2023/07/23 00:44:29;;;;;;;7.45;4.32;;;;;;;;;;5061524;28;20048;-75
2023/07/23 00:47:02;;;;;;;10.55;5.30;;;;;;;;;;5064208;28;20053;-75
2023/07/23 00:49:33;;;;;;;10.27;5.80;;;;;;;;;;5063833;28;20056;-74
2023/07/23 00:52:06;;;;;;;13.90;5.20;;;;;;;;;;5066075;28;20053;-77
2023/07/23 00:54:37;;;;;;;8.45;4.97;;;;;;;;;;5065732;28;20048;-74
2023/07/23 00:57:10;;;;;;;7.53;4.63;;;;;;;;;;5064048;28;20055;-75
2023/07/23 00:59:41;;;;;;;7.68;4.75;;;;;;;;;;5063567;28;20055;-75
2023/07/23 01:02:11;;;;;;;7.32;4.85;;;;;;;;;;5063240;28;20063;-73
2023/07/23 01:04:41;;;;;;;11.00;4.68;;;;;;;;;;5064214;28;20061;-73
2023/07/23 01:07:12;;;;;;;10.23;5.43;;;;;;;;;;5065104;28;20056;-74
2023/07/23 01:09:44;;;;;;;8.35;4.53;;;;;;;;;;5064942;28;20040;-74
2023/07/23 01:12:17;;;;;;;9.75;6.53;;;;;;;;;;5064923;28;20040;-74
2023/07/23 01:14:47;;;;;;;10.55;5.57;;;;;;;;;;5062894;28;20052;-74
2023/07/23 01:17:19;;;;;;;9.07;4.95;;;;;;;;;;5065349;28;20047;-74
2023/07/23 01:20:04;;;;;;;7.25;4.97;;;;;;;;;;5065932;28;20080;-74
2023/07/23 01:22:37;;;;;;;8.93;5.07;;;;;;;;;;5063670;28;20053;-75
2023/07/23 01:25:08;;;;;;;6.90;4.47;;;;;;;;;;5065809;28;20053;-74
2023/07/23 01:27:39;;;;;;;7.70;5.20;;;;;;;;;;5063914;28;20052;-74
2023/07/23 01:30:10;;;;;;;5.88;4.82;;;;;;;;;;5063625;28;20400;-74
2023/07/23 01:32:42;;;;;;;13.18;4.45;;;;;;;;;;5062341;28;20057;-74
2023/07/23 01:35:14;;;;;;;5.88;3.75;;;;;;;;;;5062355;28;20048;-74
2023/07/23 01:37:49;;;;;;;7.20;4.93;;;;;;;;;;5061997;28;20053;-75
2023/07/23 01:40:19;;;;;;;8.77;4.90;;;;;;;;;;5064971;28;20075;-74
2023/07/23 01:42:51;;;;;;;7.25;3.55;;;;;;;;;;5064582;28;20054;-74
2023/07/23 01:45:21;;;;;;;7.10;4.00;;;;;;;;;;5064653;28;20059;-74
2023/07/23 01:47:51;;;;;;;9.20;4.70;;;;;;;;;;5065113;28;20067;-74
2023/07/23 01:50:22;;;;;;;7.30;3.85;;;;;;;;;;5063632;28;20044;-74
2023/07/23 01:52:53;;;;;;;9.63;4.10;;;;;;;;;;5062968;28;20044;-75
2023/07/23 01:55:24;;;;;;;6.00;3.28;;;;;;;;;;5063919;28;21158;-74
2023/07/23 01:57:54;;;;;;;6.97;3.72;;;;;;;;;;5064190;28;20051;-75
2023/07/23 02:00:25;;;;;;;6.28;4.07;;;;;;;;;;5063186;28;20063;-74
2023/07/23 02:02:55;;;;;;;8.07;3.83;;;;;;;;;;5062384;28;20694;-73
2023/07/23 02:05:26;;;;;;;6.30;3.53;;;;;;;;;;5062645;28;20052;-73
2023/07/23 02:07:56;;;;;;;8.07;3.72;;;;;;;;;;5062451;28;20510;-74
2023/07/23 02:10:26;;;;;;;11.95;3.72;;;;;;;;;;5064328;28;20045;-73
2023/07/23 02:12:56;;;;;;;7.07;3.50;;;;;;;;;;5064497;28;20068;-73
2023/07/23 02:15:27;;;;;;;5.93;2.97;;;;;;;;;;5064523;28;20088;-74
2023/07/23 02:17:57;;;;;;;5.45;3.50;;;;;;;;;;5062684;28;20056;-74
2023/07/23 02:20:28;;;;;;;9.52;3.83;;;;;;;;;;5062606;28;20046;-74
2023/07/23 02:22:59;;;;;;;10.50;3.50;;;;;;;;;;5063444;28;20075;-74
2023/07/23 02:25:28;;;;;;;7.72;3.50;;;;;;;;;;5064044;28;20052;-75
2023/07/23 02:27:59;;;;;;;6.93;3.00;;;;;;;;;;5064892;28;20055;-74
2023/07/23 02:30:31;;;;;;;8.02;3.90;;;;;;;;;;5062195;28;20458;-74
2023/07/23 02:33:01;;;;;;;7.38;4.20;;;;;;;;;;5062714;28;20422;-74
2023/07/23 02:35:36;;;;;;;7.82;3.95;;;;;;;;;;5061708;28;20507;-74
2023/07/23 02:38:08;;;;;;;6.38;3.97;;;;;;;;;;5062050;28;20810;-75
2023/07/23 02:40:39;;;;;;;7.40;3.42;;;;;;;;;;5062438;28;20601;-74
2023/07/23 02:43:12;;;;;;;5.85;3.42;;;;;;;;;;5063581;28;20040;-75
2023/07/23 02:45:43;;;;;;;7.85;3.45;;;;;;;;;;5063846;28;20044;-75
2023/07/23 02:48:14;;;;;;;8.05;3.97;;;;;;;;;;5063320;28;20044;-74
2023/07/23 02:50:44;;;;;;;5.32;3.60;;;;;;;;;;5062286;28;20063;-74
2023/07/23 02:53:16;;;;;;;6.90;3.28;;;;;;;;;;5063487;28;20052;-74
2023/07/23 02:55:46;;;;;;;5.45;3.20;;;;;;;;;;5063121;28;20053;-74
2023/07/23 02:58:18;;;;;;;5.30;3.47;;;;;;;;;;5061793;28;20048;-74
2023/07/23 03:00:49;;;;;;;5.45;2.97;;;;;;;;;;5063001;28;20044;-74
2023/07/23 03:03:20;;;;;;;5.32;3.50;;;;;;;;;;5061188;28;20056;-74
2023/07/23 03:05:50;;;;;;;7.13;3.25;;;;;;;;;;5063122;28;20055;-75
2023/07/23 03:08:22;;;;;;;6.63;3.20;;;;;;;;;;5062985;28;20498;-74
2023/07/23 03:10:52;;;;;;;7.15;4.20;;;;;;;;;;5061381;28;20056;-73
2023/07/23 03:13:22;;;;;;;6.00;3.00;;;;;;;;;;5063300;28;20048;-74
2023/07/23 03:15:52;;;;;;;5.22;2.95;;;;;;;;;;5063603;28;20053;-74
2023/07/23 03:18:23;;;;;;;6.57;3.20;;;;;;;;;;5063703;28;20500;-74
2023/07/23 03:20:54;;;;;;;11.00;3.50;;;;;;;;;;5063089;28;20503;-74
2023/07/23 03:23:25;;;;;;;5.55;3.53;;;;;;;;;;5060546;28;20052;-74
2023/07/23 03:25:54;;;;;;;5.22;3.63;;;;;;;;;;5063344;28;20052;-74
2023/07/23 03:28:25;;;;;;;4.72;3.20;;;;;;;;;;5061308;28;20044;-74
2023/07/23 03:30:56;;;;;;;6.32;2.88;;;;;;;;;;5062836;28;20044;-74
2023/07/23 03:33:27;;;;;;;4.57;3.50;;;;;;;;;;5062434;28;20400;-74
2023/07/23 03:35:56;;;;;;;6.35;3.10;;;;;;;;;;5062938;28;20055;-74
2023/07/23 03:38:27;;;;;;;5.25;3.63;;;;;;;;;;5062656;28;20045;-74
2023/07/23 03:40:57;;;;;;;5.72;3.22;;;;;;;;;;5062440;28;20044;-74
2023/07/23 03:43:29;;;;;;;5.95;2.90;;;;;;;;;;5062430;28;20048;-74
2023/07/23 03:46:00;;;;;;;7.53;3.22;;;;;;;;;;5063086;28;20414;-74
2023/07/23 03:48:31;;;;;;;6.07;2.88;;;;;;;;;;5062699;28;20526;-74
2023/07/23 03:51:02;;;;;;;4.95;3.60;;;;;;;;;;5063220;28;20373;-75
2023/07/23 03:53:31;;;;;;;5.18;3.60;;;;;;;;;;5062507;28;20055;-77
2023/07/23 03:56:03;;;;;;;4.93;3.42;;;;;;;;;;5061172;28;20063;-74
2023/07/23 03:58:34;;;;;;;5.50;2.90;;;;;;;;;;5061939;28;20519;-74
2023/07/23 04:01:04;;;;;;;5.30;3.40;;;;;;;;;;5060491;28;20431;-74
2023/07/23 04:03:34;;;;;;;5.22;3.58;;;;;;;;;;5062201;28;20075;-75
2023/07/23 04:06:05;;;;;;;7.05;3.45;;;;;;;;;;5062237;28;20048;-76
2023/07/23 04:08:36;;;;;;;6.68;3.45;;;;;;;;;;5060753;28;20495;-75
2023/07/23 04:11:08;;;;;;;5.93;3.58;;;;;;;;;;5060801;28;20048;-75
2023/07/23 04:13:38;;;;;;;5.78;3.30;;;;;;;;;;5061580;28;20041;-75
2023/07/23 04:16:11;;;;;;;6.13;3.05;;;;;;;;;;5061651;28;20052;-75
2023/07/23 04:18:51;;;;;;;5.82;2.90;;;;;;;;;;5062038;28;20056;-75
2023/07/23 04:21:23;;;;;;;5.50;2.70;;;;;;;;;;5062712;28;20044;-75
2023/07/23 04:23:58;;;;;;;5.65;2.65;;;;;;;;;;5060455;28;20048;-75
2023/07/23 04:26:30;;;;;;;4.70;3.33;;;;;;;;;;5062006;28;20048;-75
2023/07/23 04:29:01;;;;;;;6.40;3.28;;;;;;;;;;5061899;28;20529;-75
2023/07/23 04:31:32;;;;;;;4.80;3.60;;;;;;;;;;5061928;28;20040;-75
2023/07/23 04:34:02;;;;;;;5.93;3.35;;;;;;;;;;5060114;28;20400;-75
2023/07/23 04:36:32;;;;;;;5.55;3.40;;;;;;;;;;5062177;28;20052;-75
2023/07/23 04:39:03;;;;;;;5.90;3.00;;;;;;;;;;5062377;28;20055;-75
2023/07/23 04:41:35;;;;;;;5.68;3.55;;;;;;;;;;5062209;28;20573;-75
2023/07/23 04:44:05;;;;;;;3.75;3.10;;;;;;;;;;5061613;28;20056;-75
2023/07/23 04:46:36;;;;;;;6.32;3.08;;;;;;;;;;5062110;28;20041;-74
2023/07/23 04:49:06;;;;;;;4.82;2.70;;;;;;;;;;5060153;28;20067;-74
2023/07/23 04:51:36;;;;;;;4.13;3.10;;;;;;;;;;5061472;28;20064;-74
2023/07/23 04:54:07;;;;;;;4.90;3.20;;;;;;;;;;5061949;28;20047;-74
2023/07/23 04:56:38;;;;;;;4.97;3.38;;;;;;;;;;5060232;28;20056;-74
2023/07/23 04:59:08;;;;;;;8.50;3.10;;;;;;;;;;5061888;28;20051;-75
2023/07/23 05:01:39;;;;;;;9.23;3.10;;;;;;;;;;5059970;28;20056;-75
2023/07/23 05:04:10;;;;;;;6.20;3.10;;;;;;;;;;5061259;28;20056;-75
2023/07/23 05:06:41;;;;;;;4.28;3.13;;;;;;;;;;5061612;28;20048;-75
2023/07/23 05:09:10;;;;;;;8.57;2.92;;;;;;;;;;5061928;28;20045;-74
2023/07/23 05:11:41;;;;;;;7.35;3.30;;;;;;;;;;5061823;28;20049;-74
2023/07/23 05:14:11;;;;;;;6.10;3.03;;;;;;;;;;5062182;28;20506;-74
2023/07/23 05:16:42;;;;;;;4.40;2.80;;;;;;;;;;5062054;28;20396;-74
2023/07/23 05:19:12;;;;;;;5.13;2.92;;;;;;;;;;5060854;28;20458;-74
2023/07/23 05:21:42;;;;;;;5.03;2.90;;;;;;;;;;5061678;28;20586;-74
2023/07/23 05:24:12;;;;;;;4.72;2.78;;;;;;;;;;5061131;28;20053;-75
2023/07/23 05:26:43;;;;;;;9.35;2.85;;;;;;;;;;5063887;28;20051;-74
2023/07/23 05:29:14;;;;;;;6.28;2.78;;;;;;;;;;5065587;28;20515;-74
2023/07/23 05:31:44;;;;;;;5.22;3.00;;;;;;;;;;5065352;28;20055;-75
2023/07/23 05:34:14;;;;;;;4.50;2.80;;;;;;;;;;5063246;28;20045;-74
2023/07/23 05:36:46;;;;;;;7.70;3.38;;;;;;;;;;5064673;28;20067;-74
2023/07/23 05:39:16;;;;;;;5.15;3.25;;;;;;;;;;5064614;28;20522;-74
2023/07/23 05:41:46;;;;;;;4.25;3.25;;;;;;;;;;5064814;28;20048;-74
2023/07/23 05:44:17;;;;;;;4.57;2.55;;;;;;;;;;5064930;28;20051;-74
2023/07/23 05:46:48;;;;;;;6.30;2.47;;;;;;;;;;5065392;28;20044;-74
2023/07/23 05:49:20;;;;;;;4.68;3.20;;;;;;;;;;5065154;28;20047;-74
2023/07/23 05:51:50;;;;;;;4.05;3.22;;;;;;;;;;5064345;28;20403;-74
2023/07/23 05:54:20;;;;;;;5.68;3.60;;;;;;;;;;5064417;28;20048;-74
2023/07/23 05:56:50;;;;;;;5.30;2.85;;;;;;;;;;5064006;28;20758;-74
2023/07/23 05:59:21;;;;;;;7.35;3.08;;;;;;;;;;5064556;28;20525;-74
2023/07/23 06:01:52;;;;;;;6.00;3.33;;;;;;;;;;5064314;28;20503;-74
2023/07/23 06:04:22;;;;;;;5.70;2.90;;;;;;;;;;5064939;28;20499;-74
2023/07/23 06:06:52;;;;;;;4.72;3.30;;;;;;;;;;5064304;28;20048;-74
2023/07/23 06:09:23;;;;;;;5.28;3.30;;;;;;;;;;5064530;28;20648;-74
2023/07/23 06:11:55;;;;;;;6.15;3.33;;;;;;;;;;5064044;28;20052;-74
2023/07/23 06:14:25;;;;;;;6.15;2.90;;;;;;;;;;5064242;28;20048;-74
2023/07/23 06:16:56;;;;;;;6.13;3.28;;;;;;;;;;5064488;28;20044;-74
2023/07/23 06:19:26;;;;;;;8.25;3.08;;;;;;;;;;5064583;28;20057;-74
2023/07/23 06:21:57;;;;;;;4.97;3.03;;;;;;;;;;5064314;28;20044;-75
2023/07/23 06:24:28;;;;;;;6.25;3.53;;;;;;;;;;5064735;28;20048;-74
2023/07/23 06:26:58;;;;;;;4.97;2.92;;;;;;;;;;5063972;28;20052;-74
2023/07/23 06:29:29;;;;;;;5.72;2.72;;;;;;;;;;5064694;28;20048;-74
2023/07/23 06:31:59;;;;;;;9.98;3.15;;;;;;;;;;5064241;28;20044;-74
2023/07/23 06:34:32;;;;;;;5.97;3.35;;;;;;;;;;5064086;28;20500;-74
2023/07/23 06:37:02;;;;;;;7.97;3.42;;;;;;;;;;5063951;28;20419;-74
2023/07/23 06:39:33;;;;;;;7.93;3.28;;;;;;;;;;5063477;28;20049;-74
2023/07/23 06:42:03;;;;;;;5.22;3.20;;;;;;;;;;5063456;28;20518;-74
2023/07/23 06:44:33;;;;;;;7.95;3.35;;;;;;;;;;5063977;28;20044;-74
2023/07/23 06:47:04;;;;;;;8.00;3.17;;;;;;;;;;5063653;28;20808;-74
2023/07/23 06:49:36;;;;;;;5.65;2.88;;;;;;;;;;5063173;28;20060;-74
2023/07/23 06:52:06;;;;;;;6.68;3.40;;;;;;;;;;5061930;28;20052;-74
2023/07/23 06:54:42;;;;;;;5.95;3.55;;;;;;;;;;5064147;28;20411;-74
2023/07/23 06:57:12;;;;;;;7.93;2.90;;;;;;;;;;5063608;28;20048;-74
2023/07/23 06:59:43;;;;;;;5.00;3.00;;;;;;;;;;5063886;28;20055;-74
2023/07/23 07:02:13;;;;;;;5.13;2.92;;;;;;;;;;5061214;28;20060;-74
2023/07/23 07:04:43;;;;;;;4.57;3.15;;;;;;;;;;5063222;28;20418;-74
2023/07/23 07:07:14;;;;;;;7.18;3.67;;;;;;;;;;5064504;28;20045;-74
2023/07/23 07:09:44;;;;;;;6.28;3.50;;;;;;;;;;5063278;28;20040;-74
2023/07/23 07:12:15;;;;;;;7.75;3.40;;;;;;;;;;5062085;28;20085;-74
2023/07/23 07:14:45;;;;;;;4.47;2.78;;;;;;;;;;5062619;28;20055;-74
2023/07/23 07:17:16;;;;;;;5.00;3.00;;;;;;;;;;5063037;28;20057;-74
2023/07/23 07:19:47;;;;;;;4.45;3.05;;;;;;;;;;5063023;28;20510;-74
2023/07/23 07:22:17;;;;;;;5.80;2.75;;;;;;;;;;5061231;28;20052;-73
2023/07/23 07:24:47;;;;;;;7.60;3.42;;;;;;;;;;5062865;28;20426;-74
2023/07/23 07:27:18;;;;;;;5.32;3.20;;;;;;;;;;5063165;28;20541;-74
2023/07/23 07:29:48;;;;;;;4.63;3.20;;;;;;;;;;5061536;28;20059;-74
2023/07/23 07:32:19;;;;;;;4.35;2.78;;;;;;;;;;5061238;28;20075;-74
2023/07/23 07:34:51;;;;;;;5.53;3.42;;;;;;;;;;5062679;28;20048;-74
2023/07/23 07:37:21;;;;;;;6.22;3.03;;;;;;;;;;5062610;28;20037;-74
2023/07/23 07:39:53;;;;;;;6.60;3.53;;;;;;;;;;5062414;28;20052;-74
2023/07/23 07:42:23;;;;;;;7.15;2.80;;;;;;;;;;5063140;28;20107;-74
2023/07/23 07:44:53;;;;;;;6.28;3.10;;;;;;;;;;5062959;28;20049;-74
2023/07/23 07:47:24;;;;;;;8.32;3.65;;;;;;;;;;5062955;28;20044;-74
2023/07/23 07:49:55;;;;;;;5.57;3.35;;;;;;;;;;5062210;28;20044;-74
2023/07/23 07:52:26;;;;;;;6.80;3.00;;;;;;;;;;5044759;28;20052;-74
2023/07/23 07:54:59;;;;;;;6.13;2.97;;;;;;;;;;5062119;28;20052;-75
2023/07/23 07:57:30;;;;;;;7.00;2.97;;;;;;;;;;5062362;28;20048;-74
2023/07/23 08:00:07;;;;;;;6.07;3.17;;;;;;;;;;5062412;28;20045;-74
2023/07/23 08:02:42;;;;;;;8.05;3.25;;;;;;;;;;5060266;28;20419;-74
2023/07/23 08:05:14;;;;;;;5.72;2.97;;;;;;;;;;5062159;28;20059;-74
2023/07/23 08:07:45;;;;;;;3.97;2.47;;;;;;;;;;5062306;28;20044;-74
2023/07/23 08:10:17;;;;;;;5.68;2.90;;;;;;;;;;5062435;28;20048;-74
2023/07/23 08:12:49;;;;;;;3.85;2.60;;;;;;;;;;5062858;28;20056;-74
2023/07/23 08:15:21;;;;;;;3.92;2.42;;;;;;;;;;5062299;28;20049;-74
2023/07/23 08:17:51;;;;;;;7.35;2.58;;;;;;;;;;5061189;28;20060;-74
2023/07/23 08:20:22;;;;;;;3.72;2.95;;;;;;;;;;5062341;28;20048;-74
2023/07/23 08:22:53;;;;;;;9.02;2.97;;;;;;;;;;5062254;28;20036;-74
2023/07/23 08:25:23;;;;;;;7.88;3.33;;;;;;;;;;5062291;28;20400;-74
2023/07/23 08:28:00;;;;;;;6.38;2.63;;;;;;;;;;5062239;28;20750;-74
2023/07/23 08:30:32;;;;;;;3.78;2.58;;;;;;;;;;5062219;28;20063;-74
2023/07/23 08:33:02;;;;;;;4.65;3.00;;;;;;;;;;5061818;28;20048;-74
2023/07/23 08:35:33;;;;;;;3.92;2.75;;;;;;;;;;5062865;28;20060;-74
2023/07/23 08:38:03;;;;;;;3.92;2.80;;;;;;;;;;5061668;28;20045;-75
2023/07/23 08:40:42;;;;;;;4.93;2.85;;;;;;;;;;5061536;28;20056;-75
2023/07/23 08:43:55;;;;;;;3.65;2.45;;;;;;;;;;5062088;28;20059;-75
2023/07/23 08:46:25;;;;;;;;;;;;;;;;;;5062525;28;20064;-75
2023/07/23 08:48:56;;;;;;;4.13;2.15;;;;;;;;;;5061926;28;19931;-75
2023/07/23 08:51:44;;;;;;;5.25;2.38;;;;;;;;;;5062513;28;20056;-74
2023/07/23 08:54:19;;;;;;;4.55;3.00;;;;;;;;;;5060179;28;20048;-75
2023/07/23 08:56:50;;;;;;;6.93;2.83;;;;;;;;;;5061808;28;20415;-75
2023/07/23 08:59:20;;;;;;;3.88;2.40;;;;;;;;;;5061823;28;20053;-75
2023/07/23 09:01:51;;;;;;;5.18;2.78;;;;;;;;;;5064323;28;20045;-75
2023/07/23 09:04:22;;;;;;;4.13;2.97;;;;;;;;;;5065935;28;20048;-75
2023/07/23 09:06:58;;;;;;;4.03;2.97;;;;;;;;;;5065762;28;20075;-75
2023/07/23 09:09:28;;;;;;;3.97;2.33;;;;;;;;;;5065600;28;20040;-75
2023/07/23 09:11:58;;;;;;;4.00;2.70;;;;;;;;;;5065039;28;20044;-75
2023/07/23 09:14:29;;;;;;;3.08;2.15;;;;;;;;;;5064091;28;20403;-75
2023/07/23 09:16:59;;;;;;;4.45;2.40;;;;;;;;;;5065349;28;20060;-74
2023/07/23 09:19:30;;;;;;;3.38;2.35;;;;;;;;;;5064994;28;20053;-74
2023/07/23 09:22:04;;;;;;;2.47;2.05;;;;;;;;;;5065167;28;20048;-75
2023/07/23 09:24:35;;;;;;;6.93;2.78;;;;;;;;;;5065586;28;20522;-75
2023/07/23 09:27:13;;;;;;;4.57;2.45;;;;;;;;;;5063948;28;20055;-75
2023/07/23 09:29:46;;;;;;;5.38;2.30;;;;;;;;;;5065355;28;20044;-74
2023/07/23 09:32:25;;;;;;;4.78;2.20;;;;;;;;;;5064887;28;20048;-76
2023/07/23 09:34:58;;;;;;;10.23;2.35;;;;;;;;;;5065200;28;20047;-75
2023/07/23 09:37:30;;;;;;;5.45;2.17;;;;;;;;;;5064943;28;20049;-75
2023/07/23 09:40:01;;;;;;;2.88;2.25;;;;;;;;;;5064453;28;20407;-75
2023/07/23 09:42:38;;;;;;;4.28;2.53;;;;;;;;;;5063434;28;20048;-74
2023/07/23 09:45:09;;;;;;;6.05;2.13;;;;;;;;;;5063346;28;20049;-75
2023/07/23 09:47:39;;;;;;;6.70;1.83;;;;;;;;;;5064463;28;20051;-75
2023/07/23 09:50:13;;;;;;;3.03;2.10;;;;;;;;;;5064977;28;20052;-75
2023/07/23 09:52:50;;;;;;;2.95;2.20;;;;;;;;;;5065282;28;20048;-75
2023/07/23 09:55:21;;;;;;;2.60;1.90;;;;;;;;;;5064731;28;20044;-75
2023/07/23 09:57:53;;;;;;;5.78;2.80;;;;;;;;;;5064862;28;20463;-76
2023/07/23 10:00:24;;;;;;;6.45;2.42;;;;;;;;;;5064195;28;20356;-75
2023/07/23 10:02:58;;;;;;;3.70;1.92;;;;;;;;;;5064437;28;20048;-75
2023/07/23 10:05:31;;;;;;;4.22;2.13;;;;;;;;;;5063861;28;20059;-75
2023/07/23 10:08:04;;;;;;;4.75;2.00;;;;;;;;;;5065048;28;20068;-76
2023/07/23 10:10:35;;;;;;;4.90;2.00;;;;;;;;;;5065304;28;20491;-75
2023/07/23 10:13:05;;;;;;;5.97;2.30;;;;;;;;;;5064123;28;20056;-75
2023/07/23 10:15:37;;;;;;;3.47;2.10;;;;;;;;;;5064861;28;20044;-75
2023/07/23 10:18:09;;;;;;;7.13;2.50;;;;;;;;;;5064586;28;20072;-75
2023/07/23 10:20:41;;;;;;;6.50;2.58;;;;;;;;;;5063897;28;20624;-75
2023/07/23 10:23:12;;;;;;;9.85;2.55;;;;;;;;;;5063223;28;20052;-75
2023/07/23 10:25:42;;;;;;;4.10;2.40;;;;;;;;;;5063859;28;20052;-75
2023/07/23 10:28:23;;;;;;;2.85;1.75;;;;;;;;;;5063687;28;20059;-75
2023/07/23 10:31:34;;;;;;;4.65;2.00;;;;;;;;;;5062538;28;20526;-75
2023/07/23 10:34:29;;;;;;;3.67;2.05;;;;;;;;;;5020678;28;20087;-75
2023/07/23 10:37:21;;;;;;;3.85;2.10;;;;;;;;;;5014255;28;20060;-75
2023/07/23 10:40:00;;;;;;;3.00;2.00;;;;;;;;;;5058509;28;20061;-74
2023/07/23 10:42:41;;;;;;;2.60;1.90;;;;;;;;;;5064103;28;20045;-76
2023/07/23 10:45:21;;;;;;;3.45;2.25;;;;;;;;;;5063734;28;20041;-74
2023/07/23 10:47:53;;;;;;;12.73;2.03;;;;;;;;;;5063345;28;20810;-74
2023/07/23 10:50:26;;;;;;;4.63;2.13;;;;;;;;;;5063123;28;20499;-75
2023/07/23 10:53:05;;;;;;;4.32;2.08;;;;;;;;;;5063258;28;20742;-74
2023/07/23 10:55:36;;;;;;;4.53;2.05;;;;;;;;;;5063644;28;20049;-74
2023/07/23 10:58:11;;;;;;;3.88;2.10;;;;;;;;;;5063909;28;20048;-75
2023/07/23 11:00:47;;;;;;;2.40;1.88;;;;;;;;;;5063633;28;20698;-75
2023/07/23 11:03:20;;;;;;;4.28;1.73;;;;;;;;;;5063518;28;20052;-75
2023/07/23 11:05:52;;;;;;;3.13;1.88;;;;;;;;;;5061737;28;20052;-75
2023/07/23 11:08:29;;;;;;;3.47;2.20;;;;;;;;;;5063749;28;20589;-75
2023/07/23 11:11:05;;;;;;;8.13;2.20;;;;;;;;;;5061127;28;20431;-75
2023/07/23 11:13:39;;;;;;;7.97;1.80;;;;;;;;;;5063236;28;20063;-75
2023/07/23 11:16:09;;;;;;;6.45;1.95;;;;;;;;;;5063388;28;20396;-75
2023/07/23 11:18:41;;;;;;;3.70;1.60;;;;;;;;;;5063450;28;20051;-75
2023/07/23 11:21:14;;;;;;;3.00;1.98;;;;;;;;;;5063289;28;20048;-75
2023/07/23 11:23:45;;;;;;;6.78;2.13;;;;;;;;;;5063231;28;20527;-74
2023/07/23 11:26:17;;;;;;;6.60;2.00;;;;;;;;;;5061741;28;20048;-75
2023/07/23 11:28:47;;;;;;;4.65;1.92;;;;;;;;;;5062060;28;20407;-75
2023/07/23 11:31:18;;;;;;;9.00;2.08;;;;;;;;;;5062875;28;20048;-74
2023/07/23 11:33:49;;;;;;;4.38;1.80;;;;;;;;;;5063050;28;20048;-76
2023/07/23 11:36:19;;;;;;;2.80;1.55;;;;;;;;;;5063780;28;20044;-75
2023/07/23 11:38:58;;;;;;;5.80;1.88;;;;;;;;;;5062289;28;20057;-75
2023/07/23 11:41:34;;;;;;;4.45;1.60;;;;;;;;;;5062204;28;20063;-74
2023/07/23 11:44:10;;;;;;;6.10;1.50;;;;;;;;;;5061908;28;20056;-76
2023/07/23 11:46:42;;;;;;;4.22;1.80;;;;;;;;;;5062825;28;20516;-75
2023/07/23 11:49:13;;;;;;;8.77;1.80;;;;;;;;;;5062676;28;20064;-75
2023/07/23 11:51:44;;;;;;;7.88;1.95;;;;;;;;;;5062037;28;20048;-75
2023/07/23 11:54:17;;;;;;;7.07;1.90;;;;;;;;;;5062083;28;20048;-74
2023/07/23 11:56:47;;;;;;;4.00;1.80;;;;;;;;;;5062399;28;20060;-78
2023/07/23 11:59:17;;;;;;;7.93;1.95;;;;;;;;;;5060275;28;20055;-75
2023/07/23 12:01:48;;;;;;;4.40;1.83;;;;;;;;;;5062548;28;20063;-75
2023/07/23 12:04:19;;;;;;;4.80;1.80;;;;;;;;;;5062161;28;20045;-74
2023/07/23 12:06:50;;;;;;;9.07;1.90;;;;;;;;;;5062734;28;20110;-74
2023/07/23 12:09:20;;;;;;;6.53;1.40;;;;;;;;;;5062543;28;20059;-74
2023/07/23 12:11:51;;;;;;;4.18;1.45;;;;;;;;;;5062256;28;20063;-74
2023/07/23 12:14:22;;;;;;;4.70;1.90;;;;;;;;;;5062397;28;20433;-75
2023/07/23 12:16:57;;;;;;;4.65;1.63;;;;;;;;;;5061423;28;20055;-74
2023/07/23 12:19:27;;;;;;;8.70;1.83;;;;;;;;;;5062430;28;20056;-75
2023/07/23 12:22:00;;;;;;;9.00;1.80;;;;;;;;;;5062033;28;20051;-75
2023/07/23 12:24:32;;;;;;;2.58;1.70;;;;;;;;;;5062507;28;20491;-79
2023/07/23 12:27:03;;;;;;;4.43;1.42;;;;;;;;;;5062440;28;20052;-74
2023/07/23 12:29:43;;;;;;;3.80;1.50;;;;;;;;;;5062443;28;20048;-76
2023/07/23 12:32:15;;;;;;;3.67;1.60;;;;;;;;;;5061874;28;20075;-75
2023/07/23 12:34:48;;;;;;;3.28;1.83;;;;;;;;;;5059589;28;20052;-75
2023/07/23 12:37:20;;;;;;;7.03;1.50;;;;;;;;;;5063886;28;20048;-75
2023/07/23 12:39:51;;;;;;;2.60;1.70;;;;;;;;;;5063650;28;20044;-75
2023/07/23 12:42:21;;;;;;;3.78;1.40;;;;;;;;;;5064281;28;20051;-75
2023/07/23 12:44:52;;;;;;;2.63;1.35;;;;;;;;;;5063507;28;20056;-74
2023/07/23 12:47:26;;;;;;;2.28;1.58;;;;;;;;;;5063416;28;20048;-75
2023/07/23 12:49:59;;;;;;;4.40;1.77;;;;;;;;;;5064390;28;20048;-73
2023/07/23 12:52:29;;;;;;;3.90;1.90;;;;;;;;;;5065974;28;20048;-74
2023/07/23 12:55:00;;;;;;;5.53;1.90;;;;;;;;;;5066259;28;20063;-75
2023/07/23 12:57:30;;;;;;;3.17;1.63;;;;;;;;;;5065868;28;20055;-75
2023/07/23 13:00:02;;;;;;;8.80;2.40;;;;;;;;;;5065745;28;20518;-76
2023/07/23 13:02:32;;;;;;;8.65;1.83;;;;;;;;;;5065729;28;20064;-75
2023/07/23 13:05:03;;;;;;;5.57;1.75;;;;;;;;;;5066115;28;20049;-75
2023/07/23 13:07:33;;;;;;;3.15;1.80;;;;;;;;;;5065080;28;20413;-75
2023/07/23 13:10:03;;;;;;;5.95;1.48;;;;;;;;;;5065526;28;20067;-75
2023/07/23 13:12:33;;;;;;;5.75;1.70;;;;;;;;;;5064960;28;20052;-76
2023/07/23 13:15:04;;;;;;;6.63;1.73;;;;;;;;;;5065664;28;20503;-76
2023/07/23 13:17:40;;;;;;;5.20;1.90;;;;;;;;;;5064916;28;20518;-76
2023/07/23 13:20:10;;;;;;;3.45;1.95;;;;;;;;;;5065907;28;20508;-76
2023/07/23 13:22:40;;;;;;;5.82;2.17;;;;;;;;;;5063747;28;20442;-75
2023/07/23 13:25:11;;;;;;;5.13;2.10;;;;;;;;;;5064113;28;20106;-76
2023/07/23 13:27:42;;;;;;;7.57;2.08;;;;;;;;;;5065796;28;20491;-77
2023/07/23 13:30:12;;;;;;;19.50;2.47;;;;;;;;;;5065194;28;20048;-75
2023/07/23 13:32:43;;;;;;;4.88;1.85;;;;;;;;;;5065003;28;20050;-76
2023/07/23 13:35:13;;;;;;;5.38;1.52;;;;;;;;;;5064981;28;20044;-79
2023/07/23 13:37:44;;;;;;;4.35;1.80;;;;;;;;;;5064780;28;20040;-74
2023/07/23 13:40:16;;;;;;;12.98;1.92;;;;;;;;;;5064410;28;20616;-75
2023/07/23 13:42:46;;;;;;;6.72;2.10;;;;;;;;;;5064953;28;20063;-76
2023/07/23 13:45:16;;;;;;;4.53;2.17;;;;;;;;;;5064963;28;20388;-75
2023/07/23 13:47:46;;;;;;;13.95;2.67;;;;;;;;;;5064264;28;20414;-75
2023/07/23 13:50:17;;;;;;;4.75;3.47;;;;;;;;;;5065447;28;20518;-77
2023/07/23 13:52:47;;;;;;;5.50;2.42;;;;;;;;;;5064409;28;20051;-77
2023/07/23 13:55:18;;;;;;;5.88;1.90;;;;;;;;;;5065046;28;20049;-77
2023/07/23 13:57:48;;;;;;;4.70;2.10;;;;;;;;;;5064587;28;20410;-75
2023/07/23 14:00:19;;;;;;;6.13;2.22;;;;;;;;;;5064665;28;20041;-75
2023/07/23 14:02:49;;;;;;;6.40;2.15;;;;;;;;;;5064693;28;20056;-76
2023/07/23 14:05:25;;;;;;;9.25;2.00;;;;;;;;;;5064325;28;20049;-74
2023/07/23 14:07:59;;;;;;;;;;;;;;;;;;5064862;28;20079;-76
2023/07/23 14:10:30;;;;;;;5.20;2.05;;;;;;;;;;5064031;28;19924;-75
2023/07/23 14:13:00;;;;;;;7.70;1.98;;;;;;;;;;5064240;28;20051;-75
2023/07/23 14:15:31;;;;;;;10.73;2.15;;;;;;;;;;5064640;28;20044;-75
2023/07/23 14:18:02;;;;;;;7.60;2.05;;;;;;;;;;5064716;28;20040;-75
2023/07/23 14:20:33;;;;;;;15.50;2.80;;;;;;;;;;5065547;28;20040;-74
2023/07/23 14:23:03;;;;;;;10.80;2.92;;;;;;;;;;5064093;28;20396;-74
2023/07/23 14:25:34;;;;;;;8.25;2.53;;;;;;;;;;5063178;28;20067;-73
2023/07/23 14:28:04;;;;;;;7.40;1.73;;;;;;;;;;5063677;28;20071;-76
2023/07/23 14:30:39;;;;;;;4.60;1.92;;;;;;;;;;5061962;28;20538;-75
2023/07/23 14:33:09;;;;;;;6.57;1.85;;;;;;;;;;5064206;28;20056;-77
2023/07/23 14:35:39;;;;;;;7.38;2.47;;;;;;;;;;5064714;28;20045;-76
2023/07/23 14:38:11;;;;;;;3.38;1.70;;;;;;;;;;5063328;28;20060;-75
2023/07/23 14:40:41;;;;;;;8.02;2.30;;;;;;;;;;5063421;28;20052;-77
2023/07/23 14:43:11;;;;;;;6.80;2.28;;;;;;;;;;5062178;28;20335;-75
2023/07/23 14:45:41;;;;;;;5.68;2.10;;;;;;;;;;5064486;28;20048;-75
2023/07/23 14:48:13;;;;;;;6.00;2.00;;;;;;;;;;5064214;28;20052;-75
2023/07/23 14:50:44;;;;;;;4.25;1.70;;;;;;;;;;5064620;28;20055;-77
2023/07/23 14:53:14;;;;;;;3.65;2.05;;;;;;;;;;5063414;28;20056;-75
2023/07/23 14:55:44;;;;;;;3.17;1.83;;;;;;;;;;5064791;28;20048;-75
2023/07/23 14:58:15;;;;;;;4.28;2.67;;;;;;;;;;5063468;28;20870;-75
2023/07/23 15:00:47;;;;;;;3.83;1.58;;;;;;;;;;5063796;28;20053;-75
2023/07/23 15:03:18;;;;;;;5.13;2.00;;;;;;;;;;5063746;28;20080;-75
2023/07/23 15:05:49;;;;;;;5.10;2.00;;;;;;;;;;5064102;28;20411;-73
2023/07/23 15:08:19;;;;;;;2.13;1.42;;;;;;;;;;5062867;28;20063;-74
2023/07/23 15:10:49;;;;;;;4.63;1.90;;;;;;;;;;5063815;28;20759;-76